sensor_id;sensor_type;location;lat;lon;timestamp;temperature;humidity
27779;DHT22;30234;48.090;11.464;2023-05-20T00:03:31;12.50;99.90
27779;DHT22;30234;48.090;11.464;2023-05-20T00:07:31;12.60;99.90
27779;DHT22;30234;48.090;11.464;2023-05-20T00:11:32;12.60;99.90
27779;DHT22;30234;48.090;11.464;2023-05-20T00:15:33;12.50;99.90
27779;DHT22;30234;48.090;11.464;2023-05-20T00:19:35;12.60;99.90
27779;DHT22;30234;48.090;11.464;2023-05-20T00:23:36;12.80;99.90
27779;DHT22;30234;48.090;11.464;2023-05-20T00:27:37;12.80;99.90
27779;DHT22;30234;48.090;11.464;2023-05-20T00:31:38;12.90;99.90
27779;DHT22;30234;48.090;11.464;2023-05-20T00:35:38;12.90;99.90
27779;DHT22;30234;48.090;11.464;2023-05-20T00:39:39;12.80;99.90
27779;DHT22;30234;48.090;11.464;2023-05-20T00:43:40;12.70;99.90
27779;DHT22;30234;48.090;11.464;2023-05-20T00:47:42;12.80;99.90
27779;DHT22;30234;48.090;11.464;2023-05-20T00:51:43;12.80;99.90
27779;DHT22;30234;48.090;11.464;2023-05-20T00:55:44;12.70;99.90
27779;DHT22;30234;48.090;11.464;2023-05-20T00:59:45;12.70;99.90
27779;DHT22;30234;48.090;11.464;2023-05-20T01:03:46;12.70;99.90
27779;DHT22;30234;48.090;11.464;2023-05-20T01:07:48;12.70;99.90
27779;DHT22;30234;48.090;11.464;2023-05-20T01:12:00;12.80;99.90
27779;DHT22;30234;48.090;11.464;2023-05-20T01:16:04;12.70;99.90
27779;DHT22;30234;48.090;11.464;2023-05-20T01:20:08;12.70;99.90
27779;DHT22;30234;48.090;11.464;2023-05-20T01:24:11;12.60;99.90
27779;DHT22;30234;48.090;11.464;2023-05-20T01:28:13;12.60;99.90
27779;DHT22;30234;48.090;11.464;2023-05-20T01:36:23;12.60;99.90
27779;DHT22;30234;48.090;11.464;2023-05-20T01:40:26;12.60;99.90
27779;DHT22;30234;48.090;11.464;2023-05-20T01:44:27;12.50;99.90
27779;DHT22;30234;48.090;11.464;2023-05-20T01:48:28;12.50;99.90
27779;DHT22;30234;48.090;11.464;2023-05-20T01:52:29;12.40;99.90
27779;DHT22;30234;48.090;11.464;2023-05-20T01:56:31;12.30;99.90
27779;DHT22;30234;48.090;11.464;2023-05-20T02:00:32;12.40;99.90
27779;DHT22;30234;48.090;11.464;2023-05-20T02:04:34;12.40;99.90
27779;DHT22;30234;48.090;11.464;2023-05-20T02:08:35;12.50;99.90
27779;DHT22;30234;48.090;11.464;2023-05-20T02:12:37;12.50;99.90
27779;DHT22;30234;48.090;11.464;2023-05-20T02:16:38;12.40;99.90
27779;DHT22;30234;48.090;11.464;2023-05-20T02:20:38;12.40;99.90
27779;DHT22;30234;48.090;11.464;2023-05-20T02:24:40;12.50;99.90
27779;DHT22;30234;48.090;11.464;2023-05-20T02:28:42;12.40;99.90
27779;DHT22;30234;48.090;11.464;2023-05-20T02:32:46;12.50;99.90
27779;DHT22;30234;48.090;11.464;2023-05-20T02:36:47;12.50;99.90
27779;DHT22;30234;48.090;11.464;2023-05-20T02:40:48;12.30;99.90
27779;DHT22;30234;48.090;11.464;2023-05-20T02:44:49;12.50;99.90
27779;DHT22;30234;48.090;11.464;2023-05-20T02:48:50;12.50;99.90
27779;DHT22;30234;48.090;11.464;2023-05-20T02:52:50;12.40;99.90
27779;DHT22;30234;48.090;11.464;2023-05-20T02:56:51;12.40;99.90
27779;DHT22;30234;48.090;11.464;2023-05-20T03:00:52;12.30;99.90
27779;DHT22;30234;48.090;11.464;2023-05-20T03:04:53;12.30;99.90
27779;DHT22;30234;48.090;11.464;2023-05-20T03:08:54;12.40;99.90
27779;DHT22;30234;48.090;11.464;2023-05-20T03:12:55;12.40;99.90
27779;DHT22;30234;48.090;11.464;2023-05-20T03:16:56;12.40;99.90
27779;DHT22;30234;48.090;11.464;2023-05-20T03:20:57;12.40;99.90
27779;DHT22;30234;48.090;11.464;2023-05-20T03:24:57;12.40;99.90
27779;DHT22;30234;48.090;11.464;2023-05-20T03:29:02;12.50;99.90
27779;DHT22;30234;48.090;11.464;2023-05-20T03:33:02;12.50;99.90
27779;DHT22;30234;48.090;11.464;2023-05-20T03:37:05;12.50;99.90
27779;DHT22;30234;48.090;11.464;2023-05-20T03:41:06;12.50;99.90
27779;DHT22;30234;48.090;11.464;2023-05-20T03:45:07;12.50;99.90
27779;DHT22;30234;48.090;11.464;2023-05-20T03:49:08;12.40;99.90
27779;DHT22;30234;48.090;11.464;2023-05-20T03:53:09;12.40;99.90
27779;DHT22;30234;48.090;11.464;2023-05-20T03:57:10;12.40;99.90
27779;DHT22;30234;48.090;11.464;2023-05-20T04:01:11;12.30;99.90
27779;DHT22;30234;48.090;11.464;2023-05-20T04:05:15;12.30;99.90
27779;DHT22;30234;48.090;11.464;2023-05-20T04:09:15;12.50;99.90
27779;DHT22;30234;48.090;11.464;2023-05-20T04:13:16;12.50;99.90
27779;DHT22;30234;48.090;11.464;2023-05-20T04:17:17;12.60;99.90
27779;DHT22;30234;48.090;11.464;2023-05-20T04:21:18;12.70;99.90
27779;DHT22;30234;48.090;11.464;2023-05-20T04:25:19;12.70;99.90
27779;DHT22;30234;48.090;11.464;2023-05-20T04:29:20;12.80;99.90
27779;DHT22;30234;48.090;11.464;2023-05-20T04:33:21;12.70;99.90
27779;DHT22;30234;48.090;11.464;2023-05-20T04:37:22;12.80;99.90
27779;DHT22;30234;48.090;11.464;2023-05-20T04:41:22;12.90;99.90
27779;DHT22;30234;48.090;11.464;2023-05-20T04:45:24;12.90;99.90
27779;DHT22;30234;48.090;11.464;2023-05-20T04:49:26;12.90;99.90
27779;DHT22;30234;48.090;11.464;2023-05-20T04:53:29;13.00;99.90
27779;DHT22;30234;48.090;11.464;2023-05-20T04:57:30;12.80;99.90
27779;DHT22;30234;48.090;11.464;2023-05-20T05:01:33;12.70;99.90
27779;DHT22;30234;48.090;11.464;2023-05-20T05:05:35;12.80;99.90
27779;DHT22;30234;48.090;11.464;2023-05-20T05:09:39;12.90;99.90
27779;DHT22;30234;48.090;11.464;2023-05-20T05:13:40;12.90;99.90
27779;DHT22;30234;48.090;11.464;2023-05-20T05:17:41;12.90;99.90
27779;DHT22;30234;48.090;11.464;2023-05-20T05:21:42;13.10;99.90
27779;DHT22;30234;48.090;11.464;2023-05-20T05:25:43;13.30;99.90
27779;DHT22;30234;48.090;11.464;2023-05-20T05:29:44;13.20;99.90
27779;DHT22;30234;48.090;11.464;2023-05-20T05:33:45;13.20;99.90
27779;DHT22;30234;48.090;11.464;2023-05-20T05:37:46;13.30;99.90
27779;DHT22;30234;48.090;11.464;2023-05-20T05:41:47;13.60;99.90
27779;DHT22;30234;48.090;11.464;2023-05-20T05:45:48;13.60;99.90
27779;DHT22;30234;48.090;11.464;2023-05-20T05:49:48;14.20;99.90
27779;DHT22;30234;48.090;11.464;2023-05-20T05:53:49;14.60;99.90
27779;DHT22;30234;48.090;11.464;2023-05-20T05:57:50;14.70;99.90
27779;DHT22;30234;48.090;11.464;2023-05-20T06:01:52;14.60;99.90
27779;DHT22;30234;48.090;11.464;2023-05-20T06:05:53;14.70;99.90
27779;DHT22;30234;48.090;11.464;2023-05-20T06:09:54;14.80;99.90
27779;DHT22;30234;48.090;11.464;2023-05-20T06:13:55;14.90;99.90
27779;DHT22;30234;48.090;11.464;2023-05-20T06:17:55;14.90;99.90
27779;DHT22;30234;48.090;11.464;2023-05-20T06:21:56;14.70;99.90
27779;DHT22;30234;48.090;11.464;2023-05-20T06:25:58;15.20;99.90
27779;DHT22;30234;48.090;11.464;2023-05-20T06:29:59;15.40;99.90
27779;DHT22;30234;48.090;11.464;2023-05-20T06:34:00;15.90;99.90
27779;DHT22;30234;48.090;11.464;2023-05-20T06:38:01;16.70;99.90
27779;DHT22;30234;48.090;11.464;2023-05-20T06:42:02;19.80;99.90
27779;DHT22;30234;48.090;11.464;2023-05-20T06:46:03;18.80;99.90
27779;DHT22;30234;48.090;11.464;2023-05-20T06:50:04;17.90;99.90
27779;DHT22;30234;48.090;11.464;2023-05-20T06:54:05;17.80;99.90
27779;DHT22;30234;48.090;11.464;2023-05-20T06:58:06;18.00;99.90
27779;DHT22;30234;48.090;11.464;2023-05-20T07:02:07;18.30;99.90
27779;DHT22;30234;48.090;11.464;2023-05-20T07:06:08;18.00;99.90
27779;DHT22;30234;48.090;11.464;2023-05-20T07:10:09;17.80;99.90
27779;DHT22;30234;48.090;11.464;2023-05-20T07:14:10;18.00;99.90
27779;DHT22;30234;48.090;11.464;2023-05-20T07:18:11;18.10;99.90
27779;DHT22;30234;48.090;11.464;2023-05-20T07:22:12;19.10;99.90
27779;DHT22;30234;48.090;11.464;2023-05-20T07:26:13;21.10;99.90
27779;DHT22;30234;48.090;11.464;2023-05-20T07:30:13;22.80;99.90
27779;DHT22;30234;48.090;11.464;2023-05-20T07:34:14;21.90;99.90
27779;DHT22;30234;48.090;11.464;2023-05-20T07:38:15;20.40;99.90
27779;DHT22;30234;48.090;11.464;2023-05-20T07:42:16;19.90;99.90
27779;DHT22;30234;48.090;11.464;2023-05-20T07:46:17;20.20;99.90
27779;DHT22;30234;48.090;11.464;2023-05-20T07:50:18;19.50;99.90
27779;DHT22;30234;48.090;11.464;2023-05-20T07:54:19;20.20;99.90
27779;DHT22;30234;48.090;11.464;2023-05-20T07:58:19;20.80;99.90
27779;DHT22;30234;48.090;11.464;2023-05-20T08:02:21;22.10;99.90
27779;DHT22;30234;48.090;11.464;2023-05-20T08:06:21;22.30;99.90
27779;DHT22;30234;48.090;11.464;2023-05-20T08:10:25;22.40;99.90
27779;DHT22;30234;48.090;11.464;2023-05-20T08:14:26;21.60;99.90
27779;DHT22;30234;48.090;11.464;2023-05-20T08:18:27;21.80;99.90
27779;DHT22;30234;48.090;11.464;2023-05-20T08:22:28;21.00;99.90
27779;DHT22;30234;48.090;11.464;2023-05-20T08:26:29;20.30;99.90
27779;DHT22;30234;48.090;11.464;2023-05-20T08:30:30;20.20;99.90
27779;DHT22;30234;48.090;11.464;2023-05-20T08:34:31;19.80;99.90
27779;DHT22;30234;48.090;11.464;2023-05-20T08:38:31;20.70;99.90
27779;DHT22;30234;48.090;11.464;2023-05-20T08:42:32;22.20;99.90
27779;DHT22;30234;48.090;11.464;2023-05-20T08:46:34;23.40;99.90
27779;DHT22;30234;48.090;11.464;2023-05-20T08:50:36;22.20;99.90
27779;DHT22;30234;48.090;11.464;2023-05-20T08:54:48;21.00;99.90
27779;DHT22;30234;48.090;11.464;2023-05-20T08:58:50;21.80;99.90
27779;DHT22;30234;48.090;11.464;2023-05-20T09:02:50;22.30;99.90
27779;DHT22;30234;48.090;11.464;2023-05-20T09:06:52;23.30;99.90
27779;DHT22;30234;48.090;11.464;2023-05-20T09:10:54;24.50;99.90
27779;DHT22;30234;48.090;11.464;2023-05-20T09:14:55;24.70;98.00
27779;DHT22;30234;48.090;11.464;2023-05-20T09:18:56;25.00;97.20
27779;DHT22;30234;48.090;11.464;2023-05-20T09:23:02;24.00;97.10
27779;DHT22;30234;48.090;11.464;2023-05-20T09:27:06;23.20;98.20
27779;DHT22;30234;48.090;11.464;2023-05-20T09:31:07;23.40;99.10
27779;DHT22;30234;48.090;11.464;2023-05-20T09:35:12;24.50;96.40
27779;DHT22;30234;48.090;11.464;2023-05-20T09:39:15;23.60;97.90
27779;DHT22;30234;48.090;11.464;2023-05-20T09:43:16;23.80;97.50
27779;DHT22;30234;48.090;11.464;2023-05-20T09:47:18;23.30;97.20
27779;DHT22;30234;48.090;11.464;2023-05-20T09:51:21;23.00;98.60
27779;DHT22;30234;48.090;11.464;2023-05-20T09:55:24;24.20;96.90
27779;DHT22;30234;48.090;11.464;2023-05-20T09:59:26;23.90;95.90
27779;DHT22;30234;48.090;11.464;2023-05-20T10:03:27;23.30;97.50
27779;DHT22;30234;48.090;11.464;2023-05-20T10:12:32;24.60;94.20
27779;DHT22;30234;48.090;11.464;2023-05-20T10:17:16;24.00;94.20
27779;DHT22;30234;48.090;11.464;2023-05-20T10:21:19;22.90;95.70
27779;DHT22;30234;48.090;11.464;2023-05-20T10:25:26;22.60;96.50
27779;DHT22;30234;48.090;11.464;2023-05-20T10:29:27;23.10;95.30
27779;DHT22;30234;48.090;11.464;2023-05-20T10:33:29;24.20;94.50
27779;DHT22;30234;48.090;11.464;2023-05-20T10:37:42;25.10;92.90
27779;DHT22;30234;48.090;11.464;2023-05-20T10:41:44;24.20;93.80
27779;DHT22;30234;48.090;11.464;2023-05-20T10:45:50;25.80;91.60
27779;DHT22;30234;48.090;11.464;2023-05-20T10:49:51;27.10;89.20
27779;DHT22;30234;48.090;11.464;2023-05-20T10:53:53;26.80;86.70
27779;DHT22;30234;48.090;11.464;2023-05-20T10:57:55;26.30;86.50
27779;DHT22;30234;48.090;11.464;2023-05-20T11:01:55;26.10;87.20
27779;DHT22;30234;48.090;11.464;2023-05-20T11:05:56;26.80;85.90
27779;DHT22;30234;48.090;11.464;2023-05-20T11:09:57;27.40;82.00
27779;DHT22;30234;48.090;11.464;2023-05-20T11:13:58;26.20;76.10
27779;DHT22;30234;48.090;11.464;2023-05-20T11:18:02;25.90;80.20
27779;DHT22;30234;48.090;11.464;2023-05-20T11:22:06;26.40;78.50
27779;DHT22;30234;48.090;11.464;2023-05-20T11:26:07;25.40;81.30
27779;DHT22;30234;48.090;11.464;2023-05-20T11:30:13;25.30;80.80
27779;DHT22;30234;48.090;11.464;2023-05-20T11:34:21;25.60;80.40
27779;DHT22;30234;48.090;11.464;2023-05-20T11:38:22;26.00;77.50
27779;DHT22;30234;48.090;11.464;2023-05-20T11:42:23;25.80;77.00
27779;DHT22;30234;48.090;11.464;2023-05-20T11:46:24;26.20;77.50
27779;DHT22;30234;48.090;11.464;2023-05-20T11:50:25;26.60;77.20
27779;DHT22;30234;48.090;11.464;2023-05-20T11:54:26;25.90;75.70
27779;DHT22;30234;48.090;11.464;2023-05-20T11:58:29;25.50;79.70
27779;DHT22;30234;48.090;11.464;2023-05-20T12:02:30;27.10;77.20
27779;DHT22;30234;48.090;11.464;2023-05-20T12:06:31;26.70;71.20
27779;DHT22;30234;48.090;11.464;2023-05-20T12:10:32;26.10;72.70
27779;DHT22;30234;48.090;11.464;2023-05-20T12:14:33;26.20;73.70
27779;DHT22;30234;48.090;11.464;2023-05-20T12:18:34;26.20;72.40
27779;DHT22;30234;48.090;11.464;2023-05-20T12:22:35;25.90;72.60
27779;DHT22;30234;48.090;11.464;2023-05-20T12:26:36;25.30;75.90
27779;DHT22;30234;48.090;11.464;2023-05-20T12:30:37;25.20;75.10
27779;DHT22;30234;48.090;11.464;2023-05-20T12:34:38;25.70;76.60
27779;DHT22;30234;48.090;11.464;2023-05-20T12:38:38;27.00;74.70
27779;DHT22;30234;48.090;11.464;2023-05-20T12:42:40;26.70;72.60
27779;DHT22;30234;48.090;11.464;2023-05-20T12:46:41;27.40;72.90
27779;DHT22;30234;48.090;11.464;2023-05-20T12:50:42;27.80;67.70
27779;DHT22;30234;48.090;11.464;2023-05-20T12:54:43;27.40;69.50
27779;DHT22;30234;48.090;11.464;2023-05-20T12:58:44;26.90;68.90
27779;DHT22;30234;48.090;11.464;2023-05-20T13:02:45;26.00;68.70
27779;DHT22;30234;48.090;11.464;2023-05-20T13:06:46;25.50;71.20
27779;DHT22;30234;48.090;11.464;2023-05-20T13:10:47;26.50;70.70
27779;DHT22;30234;48.090;11.464;2023-05-20T13:14:48;27.40;66.10
27779;DHT22;30234;48.090;11.464;2023-05-20T13:18:49;27.20;65.30
27779;DHT22;30234;48.090;11.464;2023-05-20T13:22:50;28.10;65.10
27779;DHT22;30234;48.090;11.464;2023-05-20T13:26:50;28.30;64.60
27779;DHT22;30234;48.090;11.464;2023-05-20T13:30:51;28.40;63.90
27779;DHT22;30234;48.090;11.464;2023-05-20T13:34:52;28.50;62.60
27779;DHT22;30234;48.090;11.464;2023-05-20T13:38:53;28.40;62.50
27779;DHT22;30234;48.090;11.464;2023-05-20T13:42:54;29.20;63.40
27779;DHT22;30234;48.090;11.464;2023-05-20T13:46:55;27.40;65.70
27779;DHT22;30234;48.090;11.464;2023-05-20T13:50:56;25.50;69.80
27779;DHT22;30234;48.090;11.464;2023-05-20T13:54:57;24.80;72.00
27779;DHT22;30234;48.090;11.464;2023-05-20T13:58:58;24.70;74.60
27779;DHT22;30234;48.090;11.464;2023-05-20T14:02:59;24.70;76.00
27779;DHT22;30234;48.090;11.464;2023-05-20T14:07:00;24.90;75.90
27779;DHT22;30234;48.090;11.464;2023-05-20T14:11:01;25.30;74.70
27779;DHT22;30234;48.090;11.464;2023-05-20T14:15:02;24.60;77.10
27779;DHT22;30234;48.090;11.464;2023-05-20T14:19:03;24.20;79.50
27779;DHT22;30234;48.090;11.464;2023-05-20T14:23:04;23.70;78.30
27779;DHT22;30234;48.090;11.464;2023-05-20T14:27:05;23.60;76.30
27779;DHT22;30234;48.090;11.464;2023-05-20T14:31:05;23.70;75.80
27779;DHT22;30234;48.090;11.464;2023-05-20T14:35:07;23.80;75.80
27779;DHT22;30234;48.090;11.464;2023-05-20T14:39:07;23.40;76.60
27779;DHT22;30234;48.090;11.464;2023-05-20T14:43:09;23.20;76.10
27779;DHT22;30234;48.090;11.464;2023-05-20T14:47:09;23.10;77.10
27779;DHT22;30234;48.090;11.464;2023-05-20T14:51:11;23.10;77.90
27779;DHT22;30234;48.090;11.464;2023-05-20T14:55:12;23.40;78.70
27779;DHT22;30234;48.090;11.464;2023-05-20T14:59:12;23.50;78.60
27779;DHT22;30234;48.090;11.464;2023-05-20T15:03:13;23.80;77.90
27779;DHT22;30234;48.090;11.464;2023-05-20T15:07:15;23.90;77.60
27779;DHT22;30234;48.090;11.464;2023-05-20T15:11:16;24.00;76.60
27779;DHT22;30234;48.090;11.464;2023-05-20T15:15:16;24.20;78.30
27779;DHT22;30234;48.090;11.464;2023-05-20T15:19:17;24.00;76.90
27779;DHT22;30234;48.090;11.464;2023-05-20T15:23:18;23.80;77.40
27779;DHT22;30234;48.090;11.464;2023-05-20T15:27:19;23.60;79.80
27779;DHT22;30234;48.090;11.464;2023-05-20T15:31:21;23.70;81.40
27779;DHT22;30234;48.090;11.464;2023-05-20T15:35:22;23.70;82.10
27779;DHT22;30234;48.090;11.464;2023-05-20T15:39:23;23.80;83.10
27779;DHT22;30234;48.090;11.464;2023-05-20T15:43:25;24.20;78.40
27779;DHT22;30234;48.090;11.464;2023-05-20T15:47:26;23.90;77.00
27779;DHT22;30234;48.090;11.464;2023-05-20T15:51:27;23.90;77.10
27779;DHT22;30234;48.090;11.464;2023-05-20T15:55:28;24.00;79.00
27779;DHT22;30234;48.090;11.464;2023-05-20T15:59:29;24.00;78.00
27779;DHT22;30234;48.090;11.464;2023-05-20T16:03:29;24.10;78.30
27779;DHT22;30234;48.090;11.464;2023-05-20T16:07:31;24.20;78.10
27779;DHT22;30234;48.090;11.464;2023-05-20T16:11:32;24.20;78.40
27779;DHT22;30234;48.090;11.464;2023-05-20T16:15:32;23.80;78.20
27779;DHT22;30234;48.090;11.464;2023-05-20T16:19:35;23.40;78.50
27779;DHT22;30234;48.090;11.464;2023-05-20T16:23:36;23.20;80.30
27779;DHT22;30234;48.090;11.464;2023-05-20T16:27:37;23.10;81.90
27779;DHT22;30234;48.090;11.464;2023-05-20T16:31:38;22.90;82.80
27779;DHT22;30234;48.090;11.464;2023-05-20T16:35:39;22.70;83.90
27779;DHT22;30234;48.090;11.464;2023-05-20T16:39:40;22.50;84.60
27779;DHT22;30234;48.090;11.464;2023-05-20T16:43:41;22.50;85.40
27779;DHT22;30234;48.090;11.464;2023-05-20T16:47:42;22.50;85.90
27779;DHT22;30234;48.090;11.464;2023-05-20T16:51:42;22.30;86.90
27779;DHT22;30234;48.090;11.464;2023-05-20T16:55:43;22.10;86.90
27779;DHT22;30234;48.090;11.464;2023-05-20T16:59:45;21.80;88.90
27779;DHT22;30234;48.090;11.464;2023-05-20T17:03:46;22.00;88.80
27779;DHT22;30234;48.090;11.464;2023-05-20T17:07:47;21.80;88.60
27779;DHT22;30234;48.090;11.464;2023-05-20T17:11:49;21.70;89.00
27779;DHT22;30234;48.090;11.464;2023-05-20T17:15:51;21.60;90.00
27779;DHT22;30234;48.090;11.464;2023-05-20T17:19:52;21.60;89.80
27779;DHT22;30234;48.090;11.464;2023-05-20T17:23:52;21.40;90.50
27779;DHT22;30234;48.090;11.464;2023-05-20T17:27:53;21.30;90.70
27779;DHT22;30234;48.090;11.464;2023-05-20T17:31:54;21.20;91.40
27779;DHT22;30234;48.090;11.464;2023-05-20T17:35:55;21.10;91.90
27779;DHT22;30234;48.090;11.464;2023-05-20T17:39:56;20.90;92.30
27779;DHT22;30234;48.090;11.464;2023-05-20T17:43:57;20.90;92.50
27779;DHT22;30234;48.090;11.464;2023-05-20T17:47:58;20.80;92.90
27779;DHT22;30234;48.090;11.464;2023-05-20T17:51:59;20.50;93.40
27779;DHT22;30234;48.090;11.464;2023-05-20T17:56:00;20.50;93.70
27779;DHT22;30234;48.090;11.464;2023-05-20T18:00:00;20.30;94.20
27779;DHT22;30234;48.090;11.464;2023-05-20T18:04:03;20.30;94.70
27779;DHT22;30234;48.090;11.464;2023-05-20T18:08:05;20.20;94.70
27779;DHT22;30234;48.090;11.464;2023-05-20T18:12:06;20.10;95.20
27779;DHT22;30234;48.090;11.464;2023-05-20T18:16:07;20.00;95.60
27779;DHT22;30234;48.090;11.464;2023-05-20T18:20:08;19.90;95.90
27779;DHT22;30234;48.090;11.464;2023-05-20T18:24:10;19.70;96.40
27779;DHT22;30234;48.090;11.464;2023-05-20T18:28:11;19.50;96.90
27779;DHT22;30234;48.090;11.464;2023-05-20T18:32:12;19.50;97.30
27779;DHT22;30234;48.090;11.464;2023-05-20T18:36:13;19.30;97.80
27779;DHT22;30234;48.090;11.464;2023-05-20T18:40:14;19.20;98.60
27779;DHT22;30234;48.090;11.464;2023-05-20T18:44:16;19.10;99.20
27779;DHT22;30234;48.090;11.464;2023-05-20T18:48:17;19.00;99.90
27779;DHT22;30234;48.090;11.464;2023-05-20T18:52:18;18.80;99.90
27779;DHT22;30234;48.090;11.464;2023-05-20T18:56:19;18.70;99.90
27779;DHT22;30234;48.090;11.464;2023-05-20T19:00:21;18.60;99.90
27779;DHT22;30234;48.090;11.464;2023-05-20T19:04:21;18.60;99.90
27779;DHT22;30234;48.090;11.464;2023-05-20T19:08:22;18.50;99.90
27779;DHT22;30234;48.090;11.464;2023-05-20T19:12:23;18.40;99.90
27779;DHT22;30234;48.090;11.464;2023-05-20T19:16:25;18.20;99.90
27779;DHT22;30234;48.090;11.464;2023-05-20T19:20:26;18.20;99.90
27779;DHT22;30234;48.090;11.464;2023-05-20T19:24:27;18.10;99.90
27779;DHT22;30234;48.090;11.464;2023-05-20T19:28:31;18.10;99.90
27779;DHT22;30234;48.090;11.464;2023-05-20T19:32:32;18.00;99.90
27779;DHT22;30234;48.090;11.464;2023-05-20T19:36:33;17.90;99.90
27779;DHT22;30234;48.090;11.464;2023-05-20T19:40:36;17.90;99.90
27779;DHT22;30234;48.090;11.464;2023-05-20T19:44:37;17.70;99.90
27779;DHT22;30234;48.090;11.464;2023-05-20T19:48:38;17.70;99.90
27779;DHT22;30234;48.090;11.464;2023-05-20T19:52:38;17.60;99.90
27779;DHT22;30234;48.090;11.464;2023-05-20T19:56:39;17.60;99.90
27779;DHT22;30234;48.090;11.464;2023-05-20T20:00:40;17.50;99.90
27779;DHT22;30234;48.090;11.464;2023-05-20T20:04:41;17.50;99.90
27779;DHT22;30234;48.090;11.464;2023-05-20T20:08:42;17.40;99.90
27779;DHT22;30234;48.090;11.464;2023-05-20T20:12:45;17.20;99.90
27779;DHT22;30234;48.090;11.464;2023-05-20T20:16:46;17.10;99.90
27779;DHT22;30234;48.090;11.464;2023-05-20T20:20:48;17.00;99.90
27779;DHT22;30234;48.090;11.464;2023-05-20T20:24:49;16.90;99.90
27779;DHT22;30234;48.090;11.464;2023-05-20T20:28:50;16.80;99.90
27779;DHT22;30234;48.090;11.464;2023-05-20T20:32:51;16.70;99.90
27779;DHT22;30234;48.090;11.464;2023-05-20T20:36:53;16.50;99.90
27779;DHT22;30234;48.090;11.464;2023-05-20T20:40:54;16.40;99.90
27779;DHT22;30234;48.090;11.464;2023-05-20T20:44:55;16.30;99.90
27779;DHT22;30234;48.090;11.464;2023-05-20T20:48:56;16.30;99.90
27779;DHT22;30234;48.090;11.464;2023-05-20T20:52:56;16.10;99.90
27779;DHT22;30234;48.090;11.464;2023-05-20T20:56:57;16.00;99.90
27779;DHT22;30234;48.090;11.464;2023-05-20T21:01:00;15.90;99.90
27779;DHT22;30234;48.090;11.464;2023-05-20T21:05:02;15.80;99.90
27779;DHT22;30234;48.090;11.464;2023-05-20T21:09:03;15.80;99.90
27779;DHT22;30234;48.090;11.464;2023-05-20T21:13:04;15.60;99.90
27779;DHT22;30234;48.090;11.464;2023-05-20T21:17:05;15.60;99.90
27779;DHT22;30234;48.090;11.464;2023-05-20T21:21:06;15.50;99.90
27779;DHT22;30234;48.090;11.464;2023-05-20T21:25:11;15.50;99.90
27779;DHT22;30234;48.090;11.464;2023-05-20T21:29:12;15.40;99.90
27779;DHT22;30234;48.090;11.464;2023-05-20T21:33:13;15.30;99.90
27779;DHT22;30234;48.090;11.464;2023-05-20T21:37:14;15.40;99.90
27779;DHT22;30234;48.090;11.464;2023-05-20T21:41:15;15.40;99.90
27779;DHT22;30234;48.090;11.464;2023-05-20T21:45:16;15.30;99.90
27779;DHT22;30234;48.090;11.464;2023-05-20T21:49:17;15.20;99.90
27779;DHT22;30234;48.090;11.464;2023-05-20T21:53:18;15.00;99.90
27779;DHT22;30234;48.090;11.464;2023-05-20T21:57:18;15.00;99.90
27779;DHT22;30234;48.090;11.464;2023-05-20T22:01:19;14.90;99.90
27779;DHT22;30234;48.090;11.464;2023-05-20T22:05:20;14.80;99.90
27779;DHT22;30234;48.090;11.464;2023-05-20T22:09:21;14.70;99.90
27779;DHT22;30234;48.090;11.464;2023-05-20T22:13:22;14.60;99.90
27779;DHT22;30234;48.090;11.464;2023-05-20T22:17:25;14.40;99.90
27779;DHT22;30234;48.090;11.464;2023-05-20T22:21:26;14.30;99.90
27779;DHT22;30234;48.090;11.464;2023-05-20T22:25:27;14.20;99.90
27779;DHT22;30234;48.090;11.464;2023-05-20T22:29:28;14.20;99.90
27779;DHT22;30234;48.090;11.464;2023-05-20T22:33:31;14.20;99.90
27779;DHT22;30234;48.090;11.464;2023-05-20T22:37:33;14.10;99.90
27779;DHT22;30234;48.090;11.464;2023-05-20T22:41:34;14.00;99.90
27779;DHT22;30234;48.090;11.464;2023-05-20T22:45:34;13.90;99.90
27779;DHT22;30234;48.090;11.464;2023-05-20T22:49:35;13.80;99.90
27779;DHT22;30234;48.090;11.464;2023-05-20T22:53:38;13.70;99.90
27779;DHT22;30234;48.090;11.464;2023-05-20T22:57:40;13.60;99.90
27779;DHT22;30234;48.090;11.464;2023-05-20T23:01:40;13.60;99.90
27779;DHT22;30234;48.090;11.464;2023-05-20T23:05:44;13.50;99.90
27779;DHT22;30234;48.090;11.464;2023-05-20T23:09:45;13.40;99.90
27779;DHT22;30234;48.090;11.464;2023-05-20T23:13:47;13.30;99.90
27779;DHT22;30234;48.090;11.464;2023-05-20T23:17:49;13.20;99.90
27779;DHT22;30234;48.090;11.464;2023-05-20T23:21:49;13.10;99.90
27779;DHT22;30234;48.090;11.464;2023-05-20T23:25:51;13.10;99.90
27779;DHT22;30234;48.090;11.464;2023-05-20T23:29:52;13.20;99.90
27779;DHT22;30234;48.090;11.464;2023-05-20T23:33:53;13.10;99.90
27779;DHT22;30234;48.090;11.464;2023-05-20T23:37:57;13.00;99.90
27779;DHT22;30234;48.090;11.464;2023-05-20T23:41:58;12.90;99.90
27779;DHT22;30234;48.090;11.464;2023-05-20T23:45:58;12.80;99.90
27779;DHT22;30234;48.090;11.464;2023-05-20T23:49:59;12.70;99.90
27779;DHT22;30234;48.090;11.464;2023-05-20T23:54:00;12.80;99.90
27779;DHT22;30234;48.090;11.464;2023-05-20T23:58:01;12.80;99.90
